الصفحة الرئيسية
METAR-TAF:

METAR-TAF

مطار :

مطار بيلغورود

بيلغورود, روسيا

دائرة عرض: 50-38-36N, خط طول: 036-35-24E, ارتفاع: 224 متر

مراقبة الطقس الحالي

تاريخ ووقت الإصدار 13 دقيقة قبل الساعة 16:30UTC
ريح 4 عقدة من الشمال
درجة الحرارة 22°درجة مئوية
الرطوبة 88%
ضغط 1006 hPa
الرؤية 10 كم أو أكثر
الغيوم لا تقل 1500 م ولا وجود لمزنة ركامية السحاب الأسود

METAR: UUOB 161630Z 01002MPS CAVOK 22/20 Q1006 R11/290060 NOSIG

زمن: 19:43 (16:43 UTC)

توقعات

تاريخ ووقت الإصدار 2ساعات و 48 دقيقة قبل الساعة 13:55UTC
التوقعات صالحة من16 الساعة 15 UTC إلى 16 الساعة 24 UTC
ريح 6 عقدة من الشرق/الشمال الشرقي
الرؤية 10 كم أو أكثر
غيوم مفككة على ارتفاع 2000 قدم, مزنة ركامية.
مؤقت
من 16 الساعة 15 UTC إلى 16 الساعة 18 UTC
الرؤية: 2200 متر
غيوم مفككة على ارتفاع 1000 قدم, مزنة ركامية.
عاصفة رعدية, مطر خفيف,

TAF: UUOB 161355Z 1615/1624 06003MPS 9999 BKN020CB TEMPO 1615/1618 2200 -TSRA BKN010CB

أرصاد الطقس والتوقعات من أكثر من 4000 مطار (تقارير الطقس للمطار METAR والتنبؤ بالطقس بالمطارTAF).

المحطات المتاحة هي النقط الصفراء والحمراء على الخريطة.

حرك المؤشر فوق النقطة لمعرفة اسم المحطة.

ثم انقر لمعرفة أرصاد وتوقعات الطقس.

لتغيير الخارطة: اضغط على الأزرار الخضراء مع رمز الصليب الأسود للتكبير. على الزر الأخضر مع شرطة للتصغير، أو على الأسهم الخضراء للخرائط المجاورة.


METAR-TAF: